Time;durP1;ratioP1;P1;durP2;ratioP2;P2;SDS_P1;SDS_P2;PMS_P1;PMS_P2;Temp;Humidity;BMP_temperature;BMP_pressure;BME280_temperature;BME280_humidity;BME280_pressure;Samples;Min_cycle;Max_cycle;Signal;HPM_P1;HPM_P2
2023/04/30 06:17:14;;;;;;;16.33;7.37;;;7.70;1.00;;;;;;6123774;23;20173;-91
2023/04/30 06:19:41;;;;;;;8.63;4.00;;;7.80;1.00;;;;;;4997189;28;20564;-91
2023/04/30 06:22:08;;;;;;;9.07;3.53;;;7.90;1.00;;;;;;4995407;28;20201;-93
2023/04/30 06:24:35;;;;;;;9.17;4.20;;;7.90;99.90;;;;;;4998108;28;20207;-93
2023/04/30 06:27:02;;;;;;;7.50;3.13;;;8.00;99.90;;;;;;4997031;28;20656;-91
2023/04/30 06:29:29;;;;;;;8.20;4.23;;;8.10;1.00;;;;;;4997310;28;20191;-96
2023/04/30 06:31:56;;;;;;;7.27;3.50;;;8.20;1.00;;;;;;4996984;28;20199;-91
2023/04/30 06:34:24;;;;;;;8.13;4.03;;;8.20;1.00;;;;;;4996557;28;20212;-94
2023/04/30 06:36:51;;;;;;;12.33;4.73;;;8.30;1.00;;;;;;5000178;28;20198;-93
2023/04/30 06:39:18;;;;;;;7.17;3.77;;;8.40;99.90;;;;;;4992088;28;20202;-94
2023/04/30 06:41:46;;;;;;;9.90;5.10;;;8.40;99.90;;;;;;4997211;28;20648;-94
2023/04/30 06:44:13;;;;;;;9.07;4.87;;;8.50;99.90;;;;;;5006372;28;20241;-95
2023/04/30 06:46:40;;;;;;;7.20;3.23;;;8.50;99.90;;;;;;4999658;28;20202;-96
2023/04/30 06:49:07;;;;;;;7.73;3.13;;;8.60;99.90;;;;;;4997458;28;20207;-96
2023/04/30 06:51:35;;;;;;;7.30;3.30;;;8.60;1.00;;;;;;4998042;28;20206;-96
2023/04/30 06:54:02;;;;;;;9.23;3.80;;;8.70;1.00;;;;;;4998483;28;20228;-95
2023/04/30 06:56:29;;;;;;;7.63;3.30;;;8.80;1.00;;;;;;4995595;28;20200;-95
2023/04/30 06:58:56;;;;;;;9.03;3.67;;;8.80;1.00;;;;;;4997638;28;20196;-93
2023/04/30 07:01:23;;;;;;;6.97;2.93;;;8.90;1.00;;;;;;4997633;28;20204;-96
2023/04/30 07:03:51;;;;;;;9.07;3.90;;;9.00;1.00;;;;;;4997467;28;20184;-95
2023/04/30 07:06:18;;;;;;;6.17;3.77;;;9.00;1.00;;;;;;4997164;28;20217;-94
2023/04/30 07:08:47;;;;;;;8.47;3.13;;;9.10;1.00;;;;;;4997455;28;20286;-95
2023/04/30 07:11:14;;;;;;;9.83;2.97;;;9.10;1.00;;;;;;4997804;28;20202;-95
2023/04/30 07:13:40;;;;;;;6.33;3.03;;;9.20;1.00;;;;;;4997220;28;20225;-96
2023/04/30 07:16:09;;;;;;;12.97;4.67;;;9.30;1.00;;;;;;4988384;28;20214;-96
2023/04/30 07:18:36;;;;;;;6.33;2.73;;;9.50;1.00;;;;;;4982283;28;20364;-96
2023/04/30 07:21:03;;;;;;;5.03;2.53;;;9.70;99.90;;;;;;4995991;28;20198;-95
2023/04/30 07:23:30;;;;;;;8.70;2.90;;;9.80;99.90;;;;;;4997500;28;20229;-96
2023/04/30 07:25:58;;;;;;;10.67;3.30;;;9.90;99.90;;;;;;4997316;28;20205;-94
2023/04/30 07:28:25;;;;;;;7.87;3.00;;;9.80;99.90;;;;;;4997476;28;20208;-95
2023/04/30 07:30:52;;;;;;;7.37;3.57;;;9.80;99.90;;;;;;4997012;28;20229;-95
2023/04/30 07:33:19;;;;;;;12.50;7.33;;;10.00;99.90;;;;;;4997065;28;20219;-95
2023/04/30 07:35:46;;;;;;;10.80;4.43;;;10.20;99.90;;;;;;4997446;28;20197;-95
2023/04/30 07:38:13;;;;;;;11.23;5.10;;;10.30;99.90;;;;;;4997107;28;20210;-96
2023/04/30 07:40:40;;;;;;;18.53;9.20;;;10.30;99.90;;;;;;4996919;28;20565;-95
2023/04/30 07:43:08;;;;;;;16.67;7.73;;;10.20;99.90;;;;;;4992593;28;20286;-96
2023/04/30 07:45:35;;;;;;;10.77;5.10;;;10.10;99.90;;;;;;4997062;28;20234;-96
2023/04/30 07:48:02;;;;;;;10.67;4.03;;;10.10;99.90;;;;;;4997649;28;20202;-96
2023/04/30 07:50:32;;;;;;;7.17;3.40;;;10.30;99.90;;;;;;4996673;28;20197;-96
2023/04/30 07:52:59;;;;;;;13.67;4.20;;;10.40;99.90;;;;;;4996607;28;20311;-96
2023/04/30 07:55:26;;;;;;;7.40;3.33;;;10.50;99.90;;;;;;4996704;28;20287;-96
2023/04/30 07:57:53;;;;;;;10.93;4.10;;;10.50;99.90;;;;;;4996380;28;20206;-96
2023/04/30 08:00:21;;;;;;;5.77;3.17;;;10.60;99.90;;;;;;4996848;28;20191;-96
2023/04/30 08:02:49;;;;;;;11.63;4.10;;;10.60;99.90;;;;;;4996965;28;20771;-96
2023/04/30 08:05:16;;;;;;;10.97;3.43;;;10.60;99.90;;;;;;4996563;28;20205;-96
2023/04/30 08:07:43;;;;;;;12.17;5.13;;;10.70;99.90;;;;;;4995650;28;20227;-96
2023/04/30 08:10:10;;;;;;;7.40;2.30;;;10.80;99.90;;;;;;4987763;28;20237;-96
2023/04/30 08:12:37;;;;;;;6.77;2.77;;;10.80;99.90;;;;;;4996327;28;20219;-96
2023/04/30 08:15:06;;;;;;;7.43;3.03;;;10.70;99.90;;;;;;4996544;28;20207;-96
2023/04/30 08:17:35;;;;;;;9.53;4.63;;;10.70;99.90;;;;;;4996386;28;20225;-96
2023/04/30 08:20:03;;;;;;;8.27;4.53;;;10.80;99.90;;;;;;4996679;28;20196;-96
2023/04/30 08:22:30;;;;;;;5.60;2.80;;;10.80;99.90;;;;;;4996399;28;20666;-96
2023/04/30 08:25:00;;;;;;;7.80;4.73;;;10.70;99.90;;;;;;4995853;28;20205;-96
2023/04/30 08:27:27;;;;;;;10.87;3.77;;;10.60;99.90;;;;;;4979944;28;20204;-96
2023/04/30 08:29:54;;;;;;;8.37;3.53;;;10.60;99.90;;;;;;4996181;28;20201;-95
2023/04/30 08:32:21;;;;;;;4.73;3.20;;;10.60;99.90;;;;;;4996237;28;20288;-96
2023/04/30 08:34:49;;;;;;;7.17;2.70;;;10.70;99.90;;;;;;4996511;28;20220;-96
2023/04/30 08:37:16;;;;;;;7.77;3.03;;;10.80;99.90;;;;;;4997254;28;20199;-96
2023/04/30 08:39:43;;;;;;;5.20;2.83;;;10.70;99.90;;;;;;4997474;28;20283;-96
2023/04/30 08:42:12;;;;;;;5.10;3.10;;;10.80;99.90;;;;;;4999835;28;20288;-96
2023/04/30 08:44:42;;;;;;;6.97;2.60;;;10.80;99.90;;;;;;4995476;28;20279;-95
2023/04/30 08:47:13;;;;;;;8.13;4.00;;;10.80;99.90;;;;;;4981429;28;20286;-94
2023/04/30 08:49:40;;;;;;;7.33;2.93;;;10.70;99.90;;;;;;4998905;28;20204;-96
2023/04/30 08:57:11;;;;;;;6.70;4.00;;;10.80;99.90;;;;;;5664369;23;20226;-96
2023/04/30 08:59:38;;;;;;;7.83;3.17;;;10.90;99.90;;;;;;5115398;23;20250;-96
2023/04/30 09:02:05;;;;;;;9.60;3.87;;;10.90;99.90;;;;;;5024591;28;20236;-96
2023/04/30 09:04:32;;;;;;;8.87;3.13;;;11.00;99.90;;;;;;5021837;28;20231;-96
2023/04/30 09:07:01;;;;;;;5.80;2.67;;;11.10;99.90;;;;;;5021194;28;20196;-96
2023/04/30 09:09:29;;;;;;;6.50;2.60;;;11.20;99.90;;;;;;5015447;28;20206;-96
2023/04/30 09:12:14;;;;;;;5.90;2.47;;;11.20;99.90;;;;;;4997654;28;20241;-96
2023/04/30 09:14:41;;;;;;;5.70;2.57;;;11.20;99.90;;;;;;5018260;28;20208;-96
2023/04/30 09:17:08;;;;;;;15.50;8.17;;;11.30;99.90;;;;;;5018957;28;20264;-96
2023/04/30 09:19:36;;;;;;;57.93;27.03;;;11.30;99.90;;;;;;5020427;28;20223;-96
2023/04/30 09:22:22;;;;;;;11.20;5.60;;;11.30;99.90;;;;;;5028219;28;20256;-96
2023/04/30 09:24:50;;;;;;;6.10;4.00;;;11.30;99.90;;;;;;5026462;28;20198;-96
2023/04/30 09:27:21;;;;;;;14.83;8.67;;;11.30;1.00;;;;;;5017115;28;20200;-96
2023/04/30 09:29:48;;;;;;;21.23;10.47;;;11.30;1.00;;;;;;5016679;28;20190;-96
2023/04/30 09:32:15;;;;;;;9.67;6.50;;;11.30;1.00;;;;;;5018430;28;20355;-96
2023/04/30 09:34:42;;;;;;;9.97;5.47;;;11.20;1.00;;;;;;5019367;28;20221;-96
2023/04/30 09:37:09;;;;;;;15.60;11.03;;;11.20;1.00;;;;;;5017572;28;20571;-96
2023/04/30 09:39:47;;;;;;;10.77;8.00;;;11.20;1.00;;;;;;5018972;28;20205;-96
2023/04/30 09:42:14;;;;;;;8.37;5.07;;;11.20;1.00;;;;;;5009851;28;20185;-96
2023/04/30 09:44:43;;;;;;;8.83;4.73;;;11.20;1.00;;;;;;5018826;28;20276;-96
2023/04/30 09:47:14;;;;;;;10.50;4.30;;;11.20;1.00;;;;;;5016138;28;20232;-96
2023/04/30 09:49:47;;;;;;;15.77;8.00;;;11.30;1.00;;;;;;5018553;28;20214;-96
2023/04/30 09:52:15;;;;;;;10.37;6.03;;;11.30;1.00;;;;;;5019026;28;20196;-96
2023/04/30 09:54:44;;;;;;;10.37;7.23;;;11.30;1.00;;;;;;5018340;28;20221;-96
2023/04/30 09:57:13;;;;;;;14.00;11.00;;;11.30;1.00;;;;;;5018009;28;20214;-96
2023/04/30 09:59:44;;;;;;;8.70;4.93;;;11.30;1.00;;;;;;4999080;28;20311;-96
2023/04/30 10:02:14;;;;;;;6.93;3.33;;;11.30;1.00;;;;;;5012741;28;20192;-95
2023/04/30 10:04:43;;;;;;;6.07;4.67;;;11.30;1.00;;;;;;5018515;28;20775;-96
2023/04/30 10:07:14;;;;;;;7.33;3.57;;;11.40;1.00;;;;;;5020402;28;20222;-96
2023/04/30 10:09:45;;;;;;;9.30;4.87;;;11.50;1.00;;;;;;5027859;28;20219;-95
2023/04/30 10:12:15;;;;;;;5.50;3.30;;;11.50;1.00;;;;;;5028549;28;20247;-96
2023/04/30 10:14:51;;;;;;;6.27;3.37;;;11.60;1.00;;;;;;5265156;23;20234;-96
2023/04/30 10:17:20;;;;;;;7.60;5.17;;;11.70;1.00;;;;;;5036355;28;20217;-96
2023/04/30 10:19:50;;;;;;;11.03;7.87;;;11.70;1.00;;;;;;5018748;28;20203;-96
2023/04/30 10:22:18;;;;;;;10.73;6.13;;;11.70;1.00;;;;;;5033844;28;20224;-96
2023/04/30 10:24:47;;;;;;;8.20;5.10;;;11.70;1.00;;;;;;5032225;28;20219;-96
2023/04/30 10:27:14;;;;;;;16.43;12.27;;;11.70;1.00;;;;;;5016447;28;20285;-93
2023/04/30 10:29:46;;;;;;;8.47;3.87;;;11.70;1.00;;;;;;5030202;28;20211;-96
2023/04/30 10:32:13;;;;;;;9.37;4.63;;;11.70;1.00;;;;;;5230221;23;20231;-96
2023/04/30 10:34:51;;;;;;;11.87;5.30;;;11.80;1.00;;;;;;5002281;28;20221;-95
2023/04/30 10:37:38;;;;;;;12.90;8.97;;;11.80;1.00;;;;;;4983859;28;20203;-96
2023/04/30 10:40:08;;;;;;;11.07;6.97;;;12.00;1.00;;;;;;4994485;28;20207;-96
2023/04/30 10:42:35;;;;;;;7.60;4.23;;;12.10;1.00;;;;;;5008735;28;20187;-96
2023/04/30 10:45:04;;;;;;;11.97;5.50;;;12.10;1.00;;;;;;5019381;28;20232;-96
2023/04/30 10:47:31;;;;;;;8.30;4.37;;;12.10;1.00;;;;;;5328727;23;20227;-96
2023/04/30 10:50:03;;;;;;;18.00;10.83;;;12.20;1.00;;;;;;5012026;28;20176;-96
2023/04/30 10:52:30;;;;;;;12.70;6.70;;;12.20;1.00;;;;;;5012079;28;20274;-96
2023/04/30 10:54:57;;;;;;;8.87;5.23;;;12.20;1.00;;;;;;5013108;28;20250;-96
2023/04/30 10:57:29;;;;;;;5.13;3.63;;;12.20;1.00;;;;;;5005680;28;20274;-95
2023/04/30 11:00:25;;;;;;;7.17;4.00;;;12.30;1.00;;;;;;4997938;28;20190;-96
2023/04/30 11:02:56;;;;;;;11.67;5.53;;;12.30;1.00;;;;;;4999041;28;20197;-96
2023/04/30 11:05:34;;;;;;;11.63;6.33;;;12.40;1.00;;;;;;5001421;28;20201;-96
2023/04/30 11:08:01;;;;;;;10.07;5.73;;;12.40;1.00;;;;;;5000108;28;20209;-95
2023/04/30 11:10:32;;;;;;;10.73;6.50;;;12.40;1.00;;;;;;4997135;28;20202;-96
2023/04/30 11:13:04;;;;;;;10.00;5.53;;;12.50;1.00;;;;;;4999334;28;20207;-95
2023/04/30 11:15:34;;;;;;;12.87;6.77;;;12.50;1.00;;;;;;4997795;28;20220;-96
2023/04/30 11:18:02;;;;;;;10.43;4.40;;;12.50;1.00;;;;;;4983029;28;20222;-95
2023/04/30 11:20:29;;;;;;;10.93;5.27;;;12.50;1.00;;;;;;4997303;28;20266;-96
2023/04/30 11:23:13;;;;;;;6.97;4.00;;;12.40;1.00;;;;;;4997893;28;20277;-96
2023/04/30 11:25:41;;;;;;;7.70;4.23;;;12.40;1.00;;;;;;4980682;28;20211;-95
2023/04/30 11:28:09;;;;;;;7.13;4.00;;;12.50;1.00;;;;;;4996851;28;20200;-96
2023/04/30 11:30:38;;;;;;;6.70;4.03;;;12.50;1.00;;;;;;4997130;28;20212;-94
2023/04/30 11:33:05;;;;;;;14.23;7.77;;;12.70;1.00;;;;;;4997212;28;20447;-96
2023/04/30 11:35:32;;;;;;;7.30;3.43;;;12.70;1.00;;;;;;4977629;28;20224;-95
2023/04/30 11:38:00;;;;;;;6.83;4.13;;;12.70;1.00;;;;;;4977719;28;20207;-93
2023/04/30 11:40:28;;;;;;;11.17;7.27;;;12.90;1.00;;;;;;4977691;28;20201;-93
2023/04/30 11:42:55;;;;;;;13.10;7.10;;;12.80;1.00;;;;;;4991514;28;20585;-94
2023/04/30 11:45:23;;;;;;;8.87;4.97;;;12.80;1.00;;;;;;4996886;28;20197;-96
2023/04/30 11:47:54;;;;;;;10.93;7.50;;;12.80;1.00;;;;;;4996769;28;20239;-96
2023/04/30 11:50:27;;;;;;;4.70;3.03;;;12.70;1.00;;;;;;4996247;28;20216;-95
2023/04/30 11:52:56;;;;;;;10.40;4.80;;;12.70;1.00;;;;;;4996948;28;20664;-96
2023/04/30 11:55:24;;;;;;;7.00;3.50;;;12.70;1.00;;;;;;4986050;28;20861;-95
2023/04/30 11:57:54;;;;;;;5.73;3.10;;;12.80;1.00;;;;;;4982516;28;20192;-96
2023/04/30 12:00:25;;;;;;;7.50;4.10;;;12.90;1.00;;;;;;4996194;28;20189;-95
2023/04/30 12:02:54;;;;;;;8.87;5.23;;;12.90;1.00;;;;;;4997144;28;20316;-96
2023/04/30 12:05:22;;;;;;;9.47;5.07;;;12.90;1.00;;;;;;4997077;28;20200;-96
2023/04/30 12:07:50;;;;;;;10.73;5.00;;;13.00;1.00;;;;;;4996738;28;20369;-96
2023/04/30 12:10:18;;;;;;;9.40;3.60;;;12.90;1.00;;;;;;4997652;28;20206;-96
2023/04/30 12:12:46;;;;;;;5.87;2.87;;;13.00;1.00;;;;;;4996565;28;20200;-95
2023/04/30 12:15:15;;;;;;;7.53;3.20;;;13.00;1.00;;;;;;4996925;28;20225;-95
2023/04/30 12:17:42;;;;;;;7.23;3.67;;;13.10;1.00;;;;;;4996320;28;20275;-95
2023/04/30 12:20:13;;;;;;;5.57;3.27;;;13.20;1.00;;;;;;4996336;28;20201;-96
2023/04/30 12:22:40;;;;;;;7.27;3.80;;;13.30;1.00;;;;;;4996319;28;20288;-95
2023/04/30 12:25:10;;;;;;;8.67;3.03;;;13.30;1.00;;;;;;4996105;28;20654;-95
2023/04/30 12:27:37;;;;;;;5.90;2.70;;;13.30;1.00;;;;;;4996008;28;20205;-96
2023/04/30 12:30:08;;;;;;;7.50;3.07;;;13.40;1.00;;;;;;4996317;28;20195;-95
2023/04/30 12:32:41;;;;;;;9.30;2.83;;;13.40;1.00;;;;;;4976686;28;20252;-96
2023/04/30 12:35:14;;;;;;;10.00;6.00;;;13.40;1.00;;;;;;4976682;28;20211;-95
2023/04/30 12:37:43;;;;;;;9.07;3.00;;;13.40;1.00;;;;;;4976717;28;20211;-95
2023/04/30 12:40:10;;;;;;;4.27;2.77;;;13.40;1.00;;;;;;4976792;28;20206;-95
2023/04/30 12:42:37;;;;;;;4.50;2.93;;;13.40;1.00;;;;;;4980347;28;20201;-94
2023/04/30 12:45:05;;;;;;;3.67;2.60;;;13.40;1.00;;;;;;4995794;28;20203;-95
2023/04/30 12:47:31;;;;;;;6.67;3.10;;;13.40;1.00;;;;;;4976223;28;20273;-94
2023/04/30 12:49:58;;;;;;;7.50;3.37;;;13.40;1.00;;;;;;4976224;28;20210;-94
2023/04/30 12:52:27;;;;;;;6.37;3.20;;;13.50;1.00;;;;;;4976465;28;20203;-96
2023/04/30 12:54:54;;;;;;;4.83;3.20;;;13.50;1.00;;;;;;4976425;28;20261;-95
2023/04/30 12:57:21;;;;;;;6.73;3.30;;;13.60;1.00;;;;;;4976477;28;20205;-96
2023/04/30 12:59:59;;;;;;;7.90;2.93;;;13.50;1.00;;;;;;4976479;28;20204;-95
2023/04/30 13:02:28;;;;;;;5.33;2.83;;;13.50;1.00;;;;;;4986378;28;20199;-95
2023/04/30 13:04:55;;;;;;;6.37;2.87;;;13.50;1.00;;;;;;4995388;28;20556;-95
2023/04/30 13:07:22;;;;;;;7.40;2.80;;;13.50;1.00;;;;;;4995631;28;20200;-94
2023/04/30 13:09:50;;;;;;;6.93;3.10;;;13.50;1.00;;;;;;4995627;28;20206;-95
2023/04/30 13:12:18;;;;;;;5.83;3.43;;;13.50;1.00;;;;;;4995141;28;20206;-94
2023/04/30 13:14:45;;;;;;;7.17;3.50;;;13.50;1.00;;;;;;4975730;28;20944;-96
2023/04/30 13:17:12;;;;;;;5.93;3.80;;;13.60;1.00;;;;;;4975869;28;20225;-95
2023/04/30 13:19:39;;;;;;;8.30;3.47;;;13.70;1.00;;;;;;4975976;28;20206;-95
2023/04/30 13:22:07;;;;;;;6.10;3.23;;;13.80;1.00;;;;;;4976235;28;20309;-93
2023/04/30 13:24:34;;;;;;;5.80;3.30;;;13.80;1.00;;;;;;4976023;28;20575;-95
2023/04/30 13:27:03;;;;;;;5.10;3.03;;;13.90;1.00;;;;;;4991016;28;20198;-94
2023/04/30 13:29:30;;;;;;;8.10;4.10;;;14.00;1.00;;;;;;4975719;28;20737;-95
2023/04/30 13:31:57;;;;;;;12.43;6.57;;;13.90;1.00;;;;;;4990591;28;20194;-94
2023/04/30 13:34:24;;;;;;;7.97;3.60;;;13.90;1.00;;;;;;4995282;28;20194;-94
2023/04/30 13:36:51;;;;;;;8.40;3.63;;;13.80;1.00;;;;;;4995130;28;20197;-93
2023/04/30 13:39:18;;;;;;;8.32;3.33;;;13.80;1.00;;;;;;4995040;28;20386;-95
2023/04/30 13:41:46;;;;;;;6.93;3.30;;;13.80;1.00;;;;;;4994919;28;20283;-95
2023/04/30 13:44:15;;;;;;;7.33;3.53;;;13.90;1.00;;;;;;4995359;28;20222;-94
2023/04/30 13:46:42;;;;;;;6.63;3.60;;;13.90;1.00;;;;;;4995139;28;20230;-95
2023/04/30 13:49:09;;;;;;;8.60;3.90;;;14.00;1.00;;;;;;4986493;28;20207;-96
2023/04/30 13:51:36;;;;;;;6.43;3.23;;;14.00;1.00;;;;;;4975447;28;20205;-95
2023/04/30 13:54:03;;;;;;;6.33;3.27;;;14.10;1.00;;;;;;4975830;28;20200;-94
2023/04/30 13:56:30;;;;;;;7.20;3.30;;;14.20;1.00;;;;;;4975767;28;20229;-95
2023/04/30 13:58:57;;;;;;;5.80;3.13;;;14.20;1.00;;;;;;4975775;28;20209;-94
2023/04/30 14:01:25;;;;;;;5.07;3.25;;;14.20;1.00;;;;;;4977486;28;20190;-94
2023/04/30 14:03:52;;;;;;;5.57;3.30;;;14.20;1.00;;;;;;4995143;28;20200;-93
2023/04/30 14:06:19;;;;;;;6.63;3.22;;;14.20;1.00;;;;;;4995222;28;20199;-94
2023/04/30 14:08:46;;;;;;;7.05;3.80;;;14.20;1.00;;;;;;4994781;28;20731;-95
2023/04/30 14:11:13;;;;;;;4.95;3.28;;;14.20;1.00;;;;;;4994554;28;20197;-94
2023/04/30 14:13:40;;;;;;;7.50;3.45;;;14.20;1.00;;;;;;4995044;28;20212;-94
2023/04/30 14:16:07;;;;;;;4.00;3.00;;;14.30;1.00;;;;;;4994307;28;20220;-94
2023/04/30 14:18:36;;;;;;;7.88;4.13;;;14.30;1.00;;;;;;4995207;28;20192;-95
2023/04/30 14:21:02;;;;;;;7.03;4.43;;;14.30;1.00;;;;;;4975543;28;20206;-93
2023/04/30 14:23:30;;;;;;;6.37;3.43;;;14.30;1.00;;;;;;4976206;28;20206;-94
2023/04/30 14:25:56;;;;;;;10.80;3.90;;;14.30;1.00;;;;;;4979183;28;21066;-95
2023/04/30 14:28:23;;;;;;;8.50;3.85;;;14.20;1.00;;;;;;4979017;28;20205;-95
2023/04/30 14:30:50;;;;;;;8.80;3.67;;;14.30;1.00;;;;;;4978915;28;20305;-95
2023/04/30 14:33:16;;;;;;;8.15;3.42;;;14.30;1.00;;;;;;4980460;28;20205;-94
2023/04/30 14:35:46;;;;;;;8.38;3.67;;;14.40;1.00;;;;;;4998014;28;20688;-94
2023/04/30 14:38:13;;;;;;;8.05;3.08;;;14.30;1.00;;;;;;4998091;28;20206;-94
2023/04/30 14:40:39;;;;;;;8.52;4.25;;;14.40;1.00;;;;;;4998306;28;20551;-95
2023/04/30 14:43:06;;;;;;;7.53;4.07;;;14.30;1.00;;;;;;4998538;28;20203;-94
2023/04/30 14:45:33;;;;;;;6.70;3.30;;;14.30;1.00;;;;;;4997918;28;20680;-95
2023/04/30 14:48:00;;;;;;;7.15;4.03;;;14.20;1.00;;;;;;4997853;28;20229;-95
2023/04/30 14:50:27;;;;;;;6.43;3.40;;;14.30;1.00;;;;;;4997858;28;20241;-94
2023/04/30 14:52:55;;;;;;;6.78;4.20;;;14.30;1.00;;;;;;4998146;28;20204;-94
2023/04/30 14:55:22;;;;;;;8.83;5.90;;;14.30;1.00;;;;;;4996637;28;20219;-94
2023/04/30 14:57:49;;;;;;;6.53;3.50;;;14.30;1.00;;;;;;4992416;28;20207;-95
2023/04/30 15:00:16;;;;;;;8.98;5.15;;;14.30;1.00;;;;;;4978379;28;20567;-94
2023/04/30 15:02:43;;;;;;;17.65;10.57;;;14.40;1.00;;;;;;4995013;28;20196;-94
2023/04/30 15:05:10;;;;;;;7.03;3.92;;;14.30;1.00;;;;;;4997948;28;20194;-94
2023/04/30 15:07:37;;;;;;;7.25;2.92;;;14.30;1.00;;;;;;4997839;28;20208;-95
2023/04/30 15:10:07;;;;;;;6.17;4.47;;;14.20;1.00;;;;;;4997430;28;20237;-94
2023/04/30 15:12:34;;;;;;;7.38;4.97;;;14.20;1.00;;;;;;4977727;28;20199;-94
2023/04/30 15:15:01;;;;;;;4.20;2.78;;;14.20;1.00;;;;;;4978534;28;20308;-94
2023/04/30 15:17:28;;;;;;;5.78;3.10;;;14.20;1.00;;;;;;4995064;28;20243;-95
2023/04/30 15:19:55;;;;;;;5.60;2.90;;;14.20;1.00;;;;;;4997866;28;20228;-95
2023/04/30 15:22:22;;;;;;;4.90;3.00;;;14.30;1.00;;;;;;4997303;28;20281;-94
2023/04/30 15:24:50;;;;;;;7.20;3.65;;;14.30;1.00;;;;;;4997732;28;20566;-94
2023/04/30 15:27:18;;;;;;;5.55;3.13;;;14.40;1.00;;;;;;4997143;28;20201;-93
2023/04/30 15:29:45;;;;;;;7.07;3.30;;;14.40;1.00;;;;;;4997052;28;20205;-94
2023/04/30 15:32:12;;;;;;;6.40;2.95;;;14.40;1.00;;;;;;4997411;28;20436;-96
2023/04/30 15:34:38;;;;;;;6.97;3.50;;;14.50;1.00;;;;;;4996726;28;20202;-94
2023/04/30 15:37:05;;;;;;;6.80;2.95;;;14.50;1.00;;;;;;4997023;28;20217;-94
2023/04/30 15:39:34;;;;;;;19.77;9.60;;;14.40;1.00;;;;;;4996977;28;20744;-93
2023/04/30 15:42:00;;;;;;;19.58;12.23;;;14.50;1.00;;;;;;4997061;28;20201;-93
2023/04/30 15:44:29;;;;;;;8.53;3.43;;;14.40;1.00;;;;;;4997283;28;20202;-94
2023/04/30 15:46:56;;;;;;;5.50;2.72;;;14.40;1.00;;;;;;4996805;28;20278;-94
2023/04/30 15:49:23;;;;;;;7.43;3.50;;;14.40;1.00;;;;;;4996714;28;20601;-94
2023/04/30 15:51:51;;;;;;;7.78;4.05;;;14.40;1.00;;;;;;4996845;28;20200;-93
2023/04/30 15:54:18;;;;;;;6.38;4.03;;;14.40;1.00;;;;;;4996603;28;20210;-93
2023/04/30 15:56:45;;;;;;;6.22;5.10;;;14.40;1.00;;;;;;4996400;28;20216;-94
2023/04/30 15:59:14;;;;;;;6.73;2.90;;;14.40;1.00;;;;;;4996981;28;20204;-95
2023/04/30 16:01:42;;;;;;;5.18;2.85;;;14.40;1.00;;;;;;4996641;28;20212;-94
2023/04/30 16:04:09;;;;;;;6.60;3.30;;;14.40;1.00;;;;;;4996246;28;20194;-93
2023/04/30 16:06:36;;;;;;;7.93;3.47;;;14.30;1.00;;;;;;4996354;28;20255;-94
2023/04/30 16:09:06;;;;;;;4.70;2.78;;;14.30;1.00;;;;;;4992347;28;20694;-95
2023/04/30 16:11:33;;;;;;;4.93;2.80;;;14.30;1.00;;;;;;4994638;28;20294;-94
2023/04/30 16:14:00;;;;;;;5.17;3.03;;;14.20;1.00;;;;;;4996088;28;20209;-95
2023/04/30 16:16:27;;;;;;;5.20;2.73;;;14.10;1.00;;;;;;4996602;28;20251;-94
2023/04/30 16:18:55;;;;;;;5.70;2.37;;;14.00;1.00;;;;;;4996292;28;20207;-94
2023/04/30 16:21:22;;;;;;;5.53;3.43;;;13.90;1.00;;;;;;4994137;28;20209;-94
2023/04/30 16:23:49;;;;;;;4.97;3.53;;;13.90;1.00;;;;;;4976986;28;20207;-94
2023/04/30 16:26:17;;;;;;;14.90;6.57;;;13.80;1.00;;;;;;4976483;28;20205;-94
2023/04/30 16:28:45;;;;;;;13.67;5.67;;;13.80;1.00;;;;;;4976671;28;20197;-94
2023/04/30 16:31:14;;;;;;;6.83;3.90;;;13.80;1.00;;;;;;4984567;28;20192;-95
2023/04/30 16:33:41;;;;;;;7.40;3.80;;;13.80;1.00;;;;;;4996102;28;20614;-95
2023/04/30 16:36:09;;;;;;;4.07;2.90;;;13.80;1.00;;;;;;4996096;28;20214;-94
2023/04/30 16:38:36;;;;;;;5.83;3.17;;;13.70;1.00;;;;;;4995741;28;20673;-95
2023/04/30 16:41:03;;;;;;;5.10;3.07;;;13.70;1.00;;;;;;4980093;28;20210;-95
2023/04/30 16:43:30;;;;;;;5.27;3.33;;;13.70;1.00;;;;;;4986627;28;20208;-95
2023/04/30 16:45:57;;;;;;;4.90;3.40;;;13.70;1.00;;;;;;4994886;28;20206;-92
2023/04/30 16:48:23;;;;;;;5.07;2.83;;;13.70;1.00;;;;;;4995315;28;20651;-94
2023/04/30 16:50:50;;;;;;;5.13;2.80;;;13.80;1.00;;;;;;4996009;28;20205;-94
2023/04/30 16:53:19;;;;;;;4.73;2.77;;;13.80;1.00;;;;;;4995484;28;20213;-95
2023/04/30 16:55:46;;;;;;;6.30;2.90;;;13.90;1.00;;;;;;4995272;28;20379;-93
2023/04/30 16:58:13;;;;;;;5.60;2.90;;;14.10;1.00;;;;;;4995516;28;20206;-94
2023/04/30 17:00:39;;;;;;;6.20;3.27;;;14.20;1.00;;;;;;4995571;28;20231;-94
2023/04/30 17:03:06;;;;;;;3.37;2.60;;;14.30;1.00;;;;;;4996090;28;20204;-93
2023/04/30 17:05:33;;;;;;;4.15;2.53;;;14.50;1.00;;;;;;4995857;28;20796;-94
2023/04/30 17:08:00;;;;;;;5.10;2.67;;;14.70;1.00;;;;;;4996221;28;20206;-93
2023/04/30 17:10:29;;;;;;;3.83;2.30;;;14.70;1.00;;;;;;4985083;28;20210;-94
2023/04/30 17:12:58;;;;;;;4.87;2.50;;;14.70;1.00;;;;;;4976414;28;20544;-95
2023/04/30 17:15:24;;;;;;;4.50;2.63;;;14.80;1.00;;;;;;4993761;28;20195;-94
2023/04/30 17:17:51;;;;;;;3.27;2.20;;;14.80;1.00;;;;;;4995658;28;20200;-93
2023/04/30 17:20:18;;;;;;;4.18;2.58;;;14.80;1.00;;;;;;4995410;28;20210;-94
2023/04/30 17:22:45;;;;;;;4.30;2.43;;;14.80;1.00;;;;;;4994975;28;20673;-95
2023/04/30 17:25:12;;;;;;;4.83;2.27;;;14.90;1.00;;;;;;4993086;28;20198;-95
2023/04/30 17:27:40;;;;;;;5.00;2.77;;;14.90;1.00;;;;;;4995246;28;20194;-93
2023/04/30 17:30:09;;;;;;;5.55;2.70;;;14.90;1.00;;;;;;4995205;28;20206;-93
2023/04/30 17:32:36;;;;;;;5.70;2.70;;;14.90;1.00;;;;;;4987253;28;20196;-94
2023/04/30 17:35:06;;;;;;;5.50;2.83;;;14.50;1.00;;;;;;4994921;28;20210;-93
2023/04/30 17:37:34;;;;;;;8.47;3.10;;;13.80;1.00;;;;;;4994962;28;20221;-94
2023/04/30 17:40:00;;;;;;;5.87;2.60;;;13.30;1.00;;;;;;4994108;28;20193;-93
2023/04/30 17:42:29;;;;;;;4.10;2.70;;;12.80;1.00;;;;;;4995388;28;20202;-94
2023/04/30 17:44:57;;;;;;;4.83;2.83;;;12.50;1.00;;;;;;4995474;28;20203;-94
2023/04/30 17:47:24;;;;;;;7.17;3.47;;;12.20;1.00;;;;;;4994913;28;20250;-94
2023/04/30 17:49:51;;;;;;;6.30;2.97;;;12.00;99.90;;;;;;4995225;28;20197;-93
2023/04/30 17:52:18;;;;;;;4.03;3.03;;;11.80;1.00;;;;;;4994587;28;20192;-93
2023/04/30 17:54:45;;;;;;;3.63;2.80;;;11.60;1.00;;;;;;4994987;28;20214;-94
2023/04/30 17:57:11;;;;;;;8.17;3.57;;;11.40;1.00;;;;;;4994992;28;20219;-94
2023/04/30 17:59:38;;;;;;;4.57;3.10;;;11.30;1.00;;;;;;4999132;28;20204;-93
2023/04/30 18:02:07;;;;;;;6.13;3.03;;;11.10;1.00;;;;;;4998960;28;20209;-93
2023/04/30 18:04:34;;;;;;;4.40;2.80;;;11.00;1.00;;;;;;4999285;28;20749;-93
2023/04/30 18:07:01;;;;;;;9.80;6.50;;;10.90;1.00;;;;;;4998860;28;20205;-94
2023/04/30 18:09:29;;;;;;;11.43;7.40;;;10.80;1.00;;;;;;4998535;28;20195;-93
2023/04/30 18:11:56;;;;;;;10.10;5.63;;;10.70;1.00;;;;;;4998551;28;20212;-94
2023/04/30 18:14:22;;;;;;;8.07;4.97;;;10.50;1.00;;;;;;4998521;28;20669;-93
2023/04/30 18:16:49;;;;;;;9.33;6.10;;;10.40;1.00;;;;;;4998324;28;20308;-93
2023/04/30 18:19:20;;;;;;;7.37;5.40;;;10.30;1.00;;;;;;4999349;28;20200;-93
2023/04/30 18:21:47;;;;;;;14.00;7.97;;;10.20;1.00;;;;;;5012600;28;20209;-92
2023/04/30 18:24:13;;;;;;;12.90;8.97;;;10.10;1.00;;;;;;4998337;28;20205;-93
2023/04/30 18:26:40;;;;;;;21.90;15.03;;;10.00;1.00;;;;;;4998571;28;20193;-92
2023/04/30 18:29:07;;;;;;;6.73;3.70;;;9.90;1.00;;;;;;4997763;28;20201;-93
2023/04/30 18:31:35;;;;;;;9.83;3.80;;;9.80;1.00;;;;;;4997170;28;20668;-93
2023/04/30 18:34:02;;;;;;;17.83;7.93;;;9.70;1.00;;;;;;4997965;28;20569;-92
2023/04/30 18:36:30;;;;;;;18.03;9.53;;;9.50;1.00;;;;;;4997518;28;20689;-92
2023/04/30 18:38:58;;;;;;;14.03;7.67;;;9.50;1.00;;;;;;4998235;28;20193;-91
2023/04/30 18:41:26;;;;;;;25.67;15.57;;;9.40;1.00;;;;;;4997741;28;20202;-92
2023/04/30 18:43:53;;;;;;;23.80;15.07;;;9.40;1.00;;;;;;4997599;28;20195;-92
2023/04/30 18:46:20;;;;;;;20.37;12.07;;;9.30;1.00;;;;;;4997665;28;20211;-93
2023/04/30 18:48:47;;;;;;;16.37;9.87;;;9.20;1.00;;;;;;4997917;28;20201;-92
2023/04/30 18:51:14;;;;;;;18.73;10.63;;;9.20;1.00;;;;;;4997165;28;20203;-91
2023/04/30 18:53:44;;;;;;;20.00;10.93;;;9.10;1.00;;;;;;4997869;28;20203;-90
2023/04/30 18:56:11;;;;;;;13.90;8.87;;;9.00;1.00;;;;;;4997260;28;20198;-91
2023/04/30 18:58:38;;;;;;;16.13;7.97;;;9.00;1.00;;;;;;4996931;28;20640;-92
2023/04/30 19:01:07;;;;;;;20.40;11.37;;;8.90;1.00;;;;;;4996617;28;20206;-91
2023/04/30 19:03:33;;;;;;;13.80;7.37;;;8.90;1.00;;;;;;4997934;28;20205;-92
2023/04/30 19:06:00;;;;;;;15.03;8.57;;;8.80;1.00;;;;;;4997069;28;20206;-92
2023/04/30 19:08:27;;;;;;;9.77;6.17;;;8.70;1.00;;;;;;4997392;28;20200;-92
2023/04/30 19:10:55;;;;;;;8.77;5.93;;;8.60;1.00;;;;;;4997257;28;20197;-93
2023/04/30 19:13:22;;;;;;;5.53;3.10;;;8.50;1.00;;;;;;4999378;28;20207;-93
2023/04/30 19:15:49;;;;;;;3.93;2.90;;;8.40;1.00;;;;;;4997106;28;20204;-93
2023/04/30 19:18:16;;;;;;;5.50;2.80;;;8.20;1.00;;;;;;4993983;28;20225;-93